sensor_id;sensor_type;location;lat;lon;timestamp;P1;durP1;ratioP1;P2;durP2;ratioP2
7835;SDS011;3963;42.658;23.298;2023-01-16T00:01:05;45.50;;;22.00;;
7835;SDS011;3963;42.658;23.298;2023-01-16T00:03:31;44.23;;;21.90;;
7835;SDS011;3963;42.658;23.298;2023-01-16T00:05:59;49.17;;;21.37;;
7835;SDS011;3963;42.658;23.298;2023-01-16T00:08:25;42.80;;;21.03;;
7835;SDS011;3963;42.658;23.298;2023-01-16T00:10:53;46.70;;;20.67;;
7835;SDS011;3963;42.658;23.298;2023-01-16T00:13:20;39.60;;;20.87;;
7835;SDS011;3963;42.658;23.298;2023-01-16T00:15:48;42.87;;;21.87;;
7835;SDS011;3963;42.658;23.298;2023-01-16T00:18:16;43.70;;;21.43;;
7835;SDS011;3963;42.658;23.298;2023-01-16T00:20:44;42.70;;;20.00;;
7835;SDS011;3963;42.658;23.298;2023-01-16T00:23:12;40.93;;;20.53;;
7835;SDS011;3963;42.658;23.298;2023-01-16T00:25:39;45.67;;;23.07;;
7835;SDS011;3963;42.658;23.298;2023-01-16T00:28:08;47.60;;;21.20;;
7835;SDS011;3963;42.658;23.298;2023-01-16T00:30:35;45.23;;;23.23;;
7835;SDS011;3963;42.658;23.298;2023-01-16T00:33:02;43.93;;;22.63;;
7835;SDS011;3963;42.658;23.298;2023-01-16T00:35:29;47.67;;;23.97;;
7835;SDS011;3963;42.658;23.298;2023-01-16T00:37:56;51.20;;;26.07;;
7835;SDS011;3963;42.658;23.298;2023-01-16T00:40:23;53.10;;;28.53;;
7835;SDS011;3963;42.658;23.298;2023-01-16T00:42:50;44.53;;;25.67;;
7835;SDS011;3963;42.658;23.298;2023-01-16T00:45:18;41.87;;;21.50;;
7835;SDS011;3963;42.658;23.298;2023-01-16T00:47:45;36.90;;;19.23;;
7835;SDS011;3963;42.658;23.298;2023-01-16T00:50:12;30.50;;;16.70;;
7835;SDS011;3963;42.658;23.298;2023-01-16T00:52:39;29.87;;;17.57;;
7835;SDS011;3963;42.658;23.298;2023-01-16T00:55:05;39.57;;;18.40;;
7835;SDS011;3963;42.658;23.298;2023-01-16T00:57:32;37.50;;;18.67;;
7835;SDS011;3963;42.658;23.298;2023-01-16T00:59:59;36.87;;;19.43;;
7835;SDS011;3963;42.658;23.298;2023-01-16T01:02:27;40.47;;;18.93;;
7835;SDS011;3963;42.658;23.298;2023-01-16T01:04:54;34.70;;;16.43;;
7835;SDS011;3963;42.658;23.298;2023-01-16T01:07:21;27.07;;;13.80;;
7835;SDS011;3963;42.658;23.298;2023-01-16T01:09:48;42.80;;;23.93;;
7835;SDS011;3963;42.658;23.298;2023-01-16T01:12:15;90.20;;;48.37;;
7835;SDS011;3963;42.658;23.298;2023-01-16T01:14:41;27.57;;;14.47;;
7835;SDS011;3963;42.658;23.298;2023-01-16T01:17:08;31.07;;;14.97;;
7835;SDS011;3963;42.658;23.298;2023-01-16T01:19:36;30.40;;;14.93;;
7835;SDS011;3963;42.658;23.298;2023-01-16T01:22:03;30.50;;;15.53;;
7835;SDS011;3963;42.658;23.298;2023-01-16T01:24:31;30.87;;;14.57;;
7835;SDS011;3963;42.658;23.298;2023-01-16T01:26:58;28.10;;;15.77;;
7835;SDS011;3963;42.658;23.298;2023-01-16T01:29:24;28.33;;;14.93;;
7835;SDS011;3963;42.658;23.298;2023-01-16T01:31:51;31.40;;;16.23;;
7835;SDS011;3963;42.658;23.298;2023-01-16T01:34:18;37.77;;;17.10;;
7835;SDS011;3963;42.658;23.298;2023-01-16T01:36:46;39.73;;;19.37;;
7835;SDS011;3963;42.658;23.298;2023-01-16T01:39:13;39.93;;;19.87;;
7835;SDS011;3963;42.658;23.298;2023-01-16T01:41:40;47.90;;;22.20;;
7835;SDS011;3963;42.658;23.298;2023-01-16T01:47:11;44.27;;;19.23;;
7835;SDS011;3963;42.658;23.298;2023-01-16T01:49:38;43.87;;;19.80;;
7835;SDS011;3963;42.658;23.298;2023-01-16T01:52:06;43.40;;;20.70;;
7835;SDS011;3963;42.658;23.298;2023-01-16T01:54:35;48.30;;;21.97;;
7835;SDS011;3963;42.658;23.298;2023-01-16T01:57:06;49.20;;;20.93;;
7835;SDS011;3963;42.658;23.298;2023-01-16T01:59:37;43.13;;;19.47;;
7835;SDS011;3963;42.658;23.298;2023-01-16T02:02:07;45.70;;;20.67;;
7835;SDS011;3963;42.658;23.298;2023-01-16T02:04:37;49.50;;;19.23;;
7835;SDS011;3963;42.658;23.298;2023-01-16T02:07:09;55.50;;;21.07;;
7835;SDS011;3963;42.658;23.298;2023-01-16T02:09:39;52.90;;;19.63;;
7835;SDS011;3963;42.658;23.298;2023-01-16T02:12:07;53.80;;;20.27;;
7835;SDS011;3963;42.658;23.298;2023-01-16T02:14:38;65.83;;;17.57;;
7835;SDS011;3963;42.658;23.298;2023-01-16T02:17:08;75.57;;;18.93;;
7835;SDS011;3963;42.658;23.298;2023-01-16T02:19:54;59.53;;;18.90;;
7835;SDS011;3963;42.658;23.298;2023-01-16T02:22:44;65.73;;;19.13;;
7835;SDS011;3963;42.658;23.298;2023-01-16T02:28:46;59.20;;;17.70;;
7835;SDS011;3963;42.658;23.298;2023-01-16T02:31:38;51.27;;;18.97;;
7835;SDS011;3963;42.658;23.298;2023-01-16T02:34:16;42.67;;;17.90;;
7835;SDS011;3963;42.658;23.298;2023-01-16T02:36:54;41.23;;;18.33;;
7835;SDS011;3963;42.658;23.298;2023-01-16T02:39:34;42.17;;;19.00;;
7835;SDS011;3963;42.658;23.298;2023-01-16T02:42:08;45.90;;;18.90;;
7835;SDS011;3963;42.658;23.298;2023-01-16T02:44:41;42.67;;;17.23;;
7835;SDS011;3963;42.658;23.298;2023-01-16T02:47:20;53.50;;;18.83;;
7835;SDS011;3963;42.658;23.298;2023-01-16T02:49:53;53.27;;;20.30;;
7835;SDS011;3963;42.658;23.298;2023-01-16T02:52:28;57.07;;;18.90;;
7835;SDS011;3963;42.658;23.298;2023-01-16T02:55:03;64.40;;;17.10;;
7835;SDS011;3963;42.658;23.298;2023-01-16T02:57:34;48.50;;;18.20;;
7835;SDS011;3963;42.658;23.298;2023-01-16T03:00:05;43.83;;;19.77;;
7835;SDS011;3963;42.658;23.298;2023-01-16T03:02:35;43.83;;;18.43;;
7835;SDS011;3963;42.658;23.298;2023-01-16T03:05:03;47.13;;;19.43;;
7835;SDS011;3963;42.658;23.298;2023-01-16T03:10:28;58.27;;;22.10;;
7835;SDS011;3963;42.658;23.298;2023-01-16T03:13:08;45.43;;;19.70;;
7835;SDS011;3963;42.658;23.298;2023-01-16T03:15:44;50.17;;;20.63;;
7835;SDS011;3963;42.658;23.298;2023-01-16T03:18:21;51.43;;;19.03;;
7835;SDS011;3963;42.658;23.298;2023-01-16T03:20:54;45.70;;;19.67;;
7835;SDS011;3963;42.658;23.298;2023-01-16T03:23:28;44.07;;;18.63;;
7835;SDS011;3963;42.658;23.298;2023-01-16T03:26:01;55.30;;;21.03;;
7835;SDS011;3963;42.658;23.298;2023-01-16T03:28:32;46.60;;;20.87;;
7835;SDS011;3963;42.658;23.298;2023-01-16T03:31:05;45.33;;;20.70;;
7835;SDS011;3963;42.658;23.298;2023-01-16T03:33:41;59.70;;;19.53;;
7835;SDS011;3963;42.658;23.298;2023-01-16T03:36:19;61.37;;;19.73;;
7835;SDS011;3963;42.658;23.298;2023-01-16T03:38:50;44.73;;;19.20;;
7835;SDS011;3963;42.658;23.298;2023-01-16T03:41:19;58.07;;;21.20;;
7835;SDS011;3963;42.658;23.298;2023-01-16T03:43:51;50.90;;;20.07;;
7835;SDS011;3963;42.658;23.298;2023-01-16T03:46:24;49.47;;;20.20;;
7835;SDS011;3963;42.658;23.298;2023-01-16T03:48:56;53.53;;;20.50;;
7835;SDS011;3963;42.658;23.298;2023-01-16T03:51:29;50.33;;;20.63;;
7835;SDS011;3963;42.658;23.298;2023-01-16T03:54:00;45.30;;;18.57;;
7835;SDS011;3963;42.658;23.298;2023-01-16T03:56:31;41.90;;;18.53;;
7835;SDS011;3963;42.658;23.298;2023-01-16T03:59:03;44.30;;;18.97;;
7835;SDS011;3963;42.658;23.298;2023-01-16T04:01:33;52.43;;;19.20;;
7835;SDS011;3963;42.658;23.298;2023-01-16T04:04:05;42.87;;;18.93;;
7835;SDS011;3963;42.658;23.298;2023-01-16T04:06:35;41.97;;;18.50;;
7835;SDS011;3963;42.658;23.298;2023-01-16T04:09:10;52.77;;;19.80;;
7835;SDS011;3963;42.658;23.298;2023-01-16T04:11:41;50.60;;;19.73;;
7835;SDS011;3963;42.658;23.298;2023-01-16T04:14:10;48.33;;;20.43;;
7835;SDS011;3963;42.658;23.298;2023-01-16T04:16:39;54.97;;;19.17;;
7835;SDS011;3963;42.658;23.298;2023-01-16T04:19:09;51.83;;;19.50;;
7835;SDS011;3963;42.658;23.298;2023-01-16T04:21:42;39.37;;;19.27;;
7835;SDS011;3963;42.658;23.298;2023-01-16T04:24:09;54.10;;;20.03;;
7835;SDS011;3963;42.658;23.298;2023-01-16T04:26:37;48.53;;;20.10;;
7835;SDS011;3963;42.658;23.298;2023-01-16T04:29:04;47.27;;;21.27;;
7835;SDS011;3963;42.658;23.298;2023-01-16T04:31:30;48.50;;;18.70;;
7835;SDS011;3963;42.658;23.298;2023-01-16T04:33:57;54.20;;;18.27;;
7835;SDS011;3963;42.658;23.298;2023-01-16T04:36:25;68.37;;;19.73;;
7835;SDS011;3963;42.658;23.298;2023-01-16T04:38:52;56.60;;;19.10;;
7835;SDS011;3963;42.658;23.298;2023-01-16T04:41:19;71.80;;;17.73;;
7835;SDS011;3963;42.658;23.298;2023-01-16T04:43:59;99.10;;;17.47;;
7835;SDS011;3963;42.658;23.298;2023-01-16T04:46:26;60.70;;;18.27;;
7835;SDS011;3963;42.658;23.298;2023-01-16T04:48:53;63.43;;;18.33;;
7835;SDS011;3963;42.658;23.298;2023-01-16T04:51:20;77.37;;;17.07;;
7835;SDS011;3963;42.658;23.298;2023-01-16T04:53:48;57.30;;;17.70;;
7835;SDS011;3963;42.658;23.298;2023-01-16T04:56:16;49.60;;;17.03;;
7835;SDS011;3963;42.658;23.298;2023-01-16T04:58:42;57.63;;;18.73;;
7835;SDS011;3963;42.658;23.298;2023-01-16T05:01:09;55.30;;;19.17;;
7835;SDS011;3963;42.658;23.298;2023-01-16T05:03:36;51.37;;;18.53;;
7835;SDS011;3963;42.658;23.298;2023-01-16T05:06:03;47.33;;;18.27;;
7835;SDS011;3963;42.658;23.298;2023-01-16T05:08:30;50.80;;;18.63;;
7835;SDS011;3963;42.658;23.298;2023-01-16T05:10:59;43.63;;;19.07;;
7835;SDS011;3963;42.658;23.298;2023-01-16T05:13:26;67.33;;;16.83;;
7835;SDS011;3963;42.658;23.298;2023-01-16T05:15:53;52.83;;;18.73;;
7835;SDS011;3963;42.658;23.298;2023-01-16T05:18:20;66.77;;;18.87;;
7835;SDS011;3963;42.658;23.298;2023-01-16T05:20:47;47.83;;;18.57;;
7835;SDS011;3963;42.658;23.298;2023-01-16T05:23:14;48.47;;;19.67;;
7835;SDS011;3963;42.658;23.298;2023-01-16T05:25:40;51.20;;;19.20;;
7835;SDS011;3963;42.658;23.298;2023-01-16T05:28:09;44.57;;;18.17;;
7835;SDS011;3963;42.658;23.298;2023-01-16T05:30:36;52.50;;;20.53;;
7835;SDS011;3963;42.658;23.298;2023-01-16T05:33:03;54.03;;;21.53;;
7835;SDS011;3963;42.658;23.298;2023-01-16T05:35:31;49.40;;;20.63;;
7835;SDS011;3963;42.658;23.298;2023-01-16T05:37:58;59.27;;;20.97;;
7835;SDS011;3963;42.658;23.298;2023-01-16T05:40:25;54.50;;;21.53;;
7835;SDS011;3963;42.658;23.298;2023-01-16T05:42:51;60.13;;;24.00;;
7835;SDS011;3963;42.658;23.298;2023-01-16T05:45:20;60.10;;;22.93;;
7835;SDS011;3963;42.658;23.298;2023-01-16T05:47:46;63.83;;;22.70;;
7835;SDS011;3963;42.658;23.298;2023-01-16T05:50:14;60.17;;;23.30;;
7835;SDS011;3963;42.658;23.298;2023-01-16T05:52:41;50.93;;;22.07;;
7835;SDS011;3963;42.658;23.298;2023-01-16T05:55:08;51.03;;;21.83;;
7835;SDS011;3963;42.658;23.298;2023-01-16T05:57:34;47.97;;;22.40;;
7835;SDS011;3963;42.658;23.298;2023-01-16T06:00:03;49.83;;;23.03;;
7835;SDS011;3963;42.658;23.298;2023-01-16T06:02:32;58.40;;;22.83;;
7835;SDS011;3963;42.658;23.298;2023-01-16T06:04:59;55.70;;;22.20;;
7835;SDS011;3963;42.658;23.298;2023-01-16T06:07:26;62.83;;;23.10;;
7835;SDS011;3963;42.658;23.298;2023-01-16T06:09:53;53.47;;;22.70;;
7835;SDS011;3963;42.658;23.298;2023-01-16T06:12:20;64.73;;;28.60;;
7835;SDS011;3963;42.658;23.298;2023-01-16T06:14:47;65.40;;;26.87;;
7835;SDS011;3963;42.658;23.298;2023-01-16T06:17:14;70.13;;;26.97;;
7835;SDS011;3963;42.658;23.298;2023-01-16T06:19:43;65.60;;;26.00;;
7835;SDS011;3963;42.658;23.298;2023-01-16T06:22:10;76.27;;;27.77;;
7835;SDS011;3963;42.658;23.298;2023-01-16T06:24:37;58.37;;;26.17;;
7835;SDS011;3963;42.658;23.298;2023-01-16T06:27:04;53.00;;;23.17;;
7835;SDS011;3963;42.658;23.298;2023-01-16T06:29:31;63.40;;;24.70;;
7835;SDS011;3963;42.658;23.298;2023-01-16T06:31:57;47.43;;;23.37;;
7835;SDS011;3963;42.658;23.298;2023-01-16T06:34:24;62.23;;;27.83;;
7835;SDS011;3963;42.658;23.298;2023-01-16T06:36:52;57.87;;;25.57;;
7835;SDS011;3963;42.658;23.298;2023-01-16T06:39:19;55.50;;;25.97;;
7835;SDS011;3963;42.658;23.298;2023-01-16T06:41:46;60.37;;;27.43;;
7835;SDS011;3963;42.658;23.298;2023-01-16T06:44:12;67.90;;;28.73;;
7835;SDS011;3963;42.658;23.298;2023-01-16T06:46:39;59.00;;;25.57;;
7835;SDS011;3963;42.658;23.298;2023-01-16T06:49:06;72.60;;;26.20;;
7835;SDS011;3963;42.658;23.298;2023-01-16T06:51:33;85.80;;;32.70;;
7835;SDS011;3963;42.658;23.298;2023-01-16T06:54:01;73.03;;;26.70;;
7835;SDS011;3963;42.658;23.298;2023-01-16T06:56:28;73.80;;;26.80;;
7835;SDS011;3963;42.658;23.298;2023-01-16T06:58:55;67.07;;;25.60;;
7835;SDS011;3963;42.658;23.298;2023-01-16T07:01:22;62.57;;;25.40;;
7835;SDS011;3963;42.658;23.298;2023-01-16T07:03:48;64.53;;;27.40;;
7835;SDS011;3963;42.658;23.298;2023-01-16T07:06:15;69.87;;;28.00;;
7835;SDS011;3963;42.658;23.298;2023-01-16T07:08:42;70.57;;;27.40;;
7835;SDS011;3963;42.658;23.298;2023-01-16T07:11:11;80.90;;;28.27;;
7835;SDS011;3963;42.658;23.298;2023-01-16T07:13:37;82.33;;;30.80;;
7835;SDS011;3963;42.658;23.298;2023-01-16T07:16:04;80.00;;;27.10;;
7835;SDS011;3963;42.658;23.298;2023-01-16T07:18:48;62.93;;;24.17;;
7835;SDS011;3963;42.658;23.298;2023-01-16T07:21:32;71.53;;;26.97;;
7835;SDS011;3963;42.658;23.298;2023-01-16T07:24:18;62.00;;;25.10;;
7835;SDS011;3963;42.658;23.298;2023-01-16T07:26:49;62.73;;;25.40;;
7835;SDS011;3963;42.658;23.298;2023-01-16T07:29:19;64.23;;;24.97;;
7835;SDS011;3963;42.658;23.298;2023-01-16T07:31:46;64.93;;;25.83;;
7835;SDS011;3963;42.658;23.298;2023-01-16T07:34:13;74.63;;;26.97;;
7835;SDS011;3963;42.658;23.298;2023-01-16T07:36:39;71.07;;;26.60;;
7835;SDS011;3963;42.658;23.298;2023-01-16T07:39:06;116.90;;;50.03;;
7835;SDS011;3963;42.658;23.298;2023-01-16T07:41:33;144.50;;;66.83;;
7835;SDS011;3963;42.658;23.298;2023-01-16T07:44:01;78.30;;;31.50;;
7835;SDS011;3963;42.658;23.298;2023-01-16T07:46:28;77.83;;;30.27;;
7835;SDS011;3963;42.658;23.298;2023-01-16T07:48:54;77.13;;;30.53;;
7835;SDS011;3963;42.658;23.298;2023-01-16T07:51:21;65.17;;;29.77;;
7835;SDS011;3963;42.658;23.298;2023-01-16T07:53:48;69.67;;;28.70;;
7835;SDS011;3963;42.658;23.298;2023-01-16T07:56:15;72.77;;;29.37;;
7835;SDS011;3963;42.658;23.298;2023-01-16T07:58:42;68.93;;;27.43;;
7835;SDS011;3963;42.658;23.298;2023-01-16T08:01:10;70.47;;;28.77;;
7835;SDS011;3963;42.658;23.298;2023-01-16T08:03:37;73.83;;;28.57;;
7835;SDS011;3963;42.658;23.298;2023-01-16T08:06:04;60.80;;;26.93;;
7835;SDS011;3963;42.658;23.298;2023-01-16T08:08:32;67.50;;;26.70;;
7835;SDS011;3963;42.658;23.298;2023-01-16T08:10:59;65.63;;;27.30;;
7835;SDS011;3963;42.658;23.298;2023-01-16T08:13:49;73.73;;;28.40;;
7835;SDS011;3963;42.658;23.298;2023-01-16T08:16:17;64.80;;;27.70;;
7835;SDS011;3963;42.658;23.298;2023-01-16T08:18:44;69.77;;;28.07;;
7835;SDS011;3963;42.658;23.298;2023-01-16T08:21:13;66.83;;;29.20;;
7835;SDS011;3963;42.658;23.298;2023-01-16T08:23:40;78.43;;;31.40;;
7835;SDS011;3963;42.658;23.298;2023-01-16T08:26:07;77.27;;;30.50;;
7835;SDS011;3963;42.658;23.298;2023-01-16T08:28:34;75.47;;;28.80;;
7835;SDS011;3963;42.658;23.298;2023-01-16T08:31:03;75.23;;;29.03;;
7835;SDS011;3963;42.658;23.298;2023-01-16T08:33:33;67.80;;;30.40;;
7835;SDS011;3963;42.658;23.298;2023-01-16T08:36:02;72.17;;;29.67;;
7835;SDS011;3963;42.658;23.298;2023-01-16T08:38:29;73.20;;;29.73;;
7835;SDS011;3963;42.658;23.298;2023-01-16T08:40:56;70.80;;;29.63;;
7835;SDS011;3963;42.658;23.298;2023-01-16T08:43:23;84.27;;;33.90;;
7835;SDS011;3963;42.658;23.298;2023-01-16T08:46:10;75.43;;;30.77;;
7835;SDS011;3963;42.658;23.298;2023-01-16T08:49:02;72.90;;;29.00;;
7835;SDS011;3963;42.658;23.298;2023-01-16T08:51:47;78.30;;;29.80;;
7835;SDS011;3963;42.658;23.298;2023-01-16T08:54:13;77.77;;;30.63;;
7835;SDS011;3963;42.658;23.298;2023-01-16T08:56:40;70.03;;;30.63;;
7835;SDS011;3963;42.658;23.298;2023-01-16T08:59:08;64.87;;;27.37;;
7835;SDS011;3963;42.658;23.298;2023-01-16T09:01:35;65.37;;;28.67;;
7835;SDS011;3963;42.658;23.298;2023-01-16T09:04:03;80.40;;;35.27;;
7835;SDS011;3963;42.658;23.298;2023-01-16T09:06:30;66.33;;;29.50;;
7835;SDS011;3963;42.658;23.298;2023-01-16T09:09:01;70.23;;;31.07;;
7835;SDS011;3963;42.658;23.298;2023-01-16T09:11:28;66.70;;;30.20;;
7835;SDS011;3963;42.658;23.298;2023-01-16T09:14:12;69.30;;;30.77;;
7835;SDS011;3963;42.658;23.298;2023-01-16T09:16:39;61.80;;;28.87;;
7835;SDS011;3963;42.658;23.298;2023-01-16T09:19:07;62.83;;;27.93;;
7835;SDS011;3963;42.658;23.298;2023-01-16T09:21:33;57.87;;;26.87;;
7835;SDS011;3963;42.658;23.298;2023-01-16T09:24:00;103.00;;;46.57;;
7835;SDS011;3963;42.658;23.298;2023-01-16T09:26:28;216.47;;;102.00;;
7835;SDS011;3963;42.658;23.298;2023-01-16T09:28:55;56.63;;;26.83;;
7835;SDS011;3963;42.658;23.298;2023-01-16T09:31:22;65.60;;;27.90;;
7835;SDS011;3963;42.658;23.298;2023-01-16T09:33:49;53.40;;;24.70;;
7835;SDS011;3963;42.658;23.298;2023-01-16T09:36:19;56.73;;;26.00;;
7835;SDS011;3963;42.658;23.298;2023-01-16T09:38:45;51.93;;;25.10;;
7835;SDS011;3963;42.658;23.298;2023-01-16T09:41:13;49.30;;;24.30;;
7835;SDS011;3963;42.658;23.298;2023-01-16T09:44:04;51.13;;;25.27;;
7835;SDS011;3963;42.658;23.298;2023-01-16T09:46:32;47.40;;;24.00;;
7835;SDS011;3963;42.658;23.298;2023-01-16T09:49:05;45.87;;;22.00;;
7835;SDS011;3963;42.658;23.298;2023-01-16T09:51:43;104.60;;;50.83;;
7835;SDS011;3963;42.658;23.298;2023-01-16T09:54:35;47.03;;;22.37;;
7835;SDS011;3963;42.658;23.298;2023-01-16T09:57:25;40.60;;;20.30;;
7835;SDS011;3963;42.658;23.298;2023-01-16T10:00:13;47.70;;;21.40;;
7835;SDS011;3963;42.658;23.298;2023-01-16T10:02:43;49.13;;;20.53;;
7835;SDS011;3963;42.658;23.298;2023-01-16T10:05:10;43.63;;;20.40;;
7835;SDS011;3963;42.658;23.298;2023-01-16T10:07:46;44.37;;;22.23;;
7835;SDS011;3963;42.658;23.298;2023-01-16T10:10:23;48.80;;;23.93;;
7835;SDS011;3963;42.658;23.298;2023-01-16T10:13:05;46.17;;;22.33;;
7835;SDS011;3963;42.658;23.298;2023-01-16T10:15:42;41.67;;;20.47;;
7835;SDS011;3963;42.658;23.298;2023-01-16T10:18:21;40.23;;;20.53;;
7835;SDS011;3963;42.658;23.298;2023-01-16T10:21:17;36.97;;;19.43;;
7835;SDS011;3963;42.658;23.298;2023-01-16T10:23:57;46.77;;;23.03;;
7835;SDS011;3963;42.658;23.298;2023-01-16T10:26:28;36.80;;;20.57;;
7835;SDS011;3963;42.658;23.298;2023-01-16T10:28:59;46.20;;;21.67;;
7835;SDS011;3963;42.658;23.298;2023-01-16T10:31:47;46.83;;;21.63;;
7835;SDS011;3963;42.658;23.298;2023-01-16T10:34:17;39.10;;;20.50;;
7835;SDS011;3963;42.658;23.298;2023-01-16T10:36:47;40.07;;;20.17;;
7835;SDS011;3963;42.658;23.298;2023-01-16T10:39:19;36.70;;;21.53;;
7835;SDS011;3963;42.658;23.298;2023-01-16T10:41:47;39.53;;;20.07;;
7835;SDS011;3963;42.658;23.298;2023-01-16T10:44:34;44.80;;;21.00;;
7835;SDS011;3963;42.658;23.298;2023-01-16T10:47:21;49.67;;;21.63;;
7835;SDS011;3963;42.658;23.298;2023-01-16T10:50:08;39.13;;;19.73;;
7835;SDS011;3963;42.658;23.298;2023-01-16T10:52:35;38.03;;;19.97;;
7835;SDS011;3963;42.658;23.298;2023-01-16T10:55:05;43.20;;;21.60;;
7835;SDS011;3963;42.658;23.298;2023-01-16T10:57:33;39.37;;;20.60;;
7835;SDS011;3963;42.658;23.298;2023-01-16T11:00:03;50.20;;;21.17;;
7835;SDS011;3963;42.658;23.298;2023-01-16T11:02:33;38.73;;;20.17;;
7835;SDS011;3963;42.658;23.298;2023-01-16T11:07:52;38.13;;;19.00;;
7835;SDS011;3963;42.658;23.298;2023-01-16T11:10:21;38.57;;;19.93;;
7835;SDS011;3963;42.658;23.298;2023-01-16T11:12:49;41.33;;;21.10;;
7835;SDS011;3963;42.658;23.298;2023-01-16T11:15:35;36.33;;;19.17;;
7835;SDS011;3963;42.658;23.298;2023-01-16T11:18:35;27.53;;;15.43;;
7835;SDS011;3963;42.658;23.298;2023-01-16T11:21:12;30.73;;;16.37;;
7835;SDS011;3963;42.658;23.298;2023-01-16T11:23:42;29.50;;;15.40;;
7835;SDS011;3963;42.658;23.298;2023-01-16T11:26:12;33.93;;;18.37;;
7835;SDS011;3963;42.658;23.298;2023-01-16T11:28:39;33.77;;;17.10;;
7835;SDS011;3963;42.658;23.298;2023-01-16T11:31:13;37.07;;;18.90;;
7835;SDS011;3963;42.658;23.298;2023-01-16T11:33:44;32.73;;;17.37;;
7835;SDS011;3963;42.658;23.298;2023-01-16T11:36:15;35.50;;;18.37;;
7835;SDS011;3963;42.658;23.298;2023-01-16T11:38:44;35.13;;;18.87;;
7835;SDS011;3963;42.658;23.298;2023-01-16T11:41:16;35.40;;;19.70;;
7835;SDS011;3963;42.658;23.298;2023-01-16T11:43:44;36.03;;;19.50;;
7835;SDS011;3963;42.658;23.298;2023-01-16T11:46:46;35.80;;;20.80;;
7835;SDS011;3963;42.658;23.298;2023-01-16T11:49:23;40.07;;;21.40;;
7835;SDS011;3963;42.658;23.298;2023-01-16T11:51:51;42.53;;;24.03;;
7835;SDS011;3963;42.658;23.298;2023-01-16T11:54:20;37.90;;;21.27;;
7835;SDS011;3963;42.658;23.298;2023-01-16T11:56:59;35.60;;;20.97;;
7835;SDS011;3963;42.658;23.298;2023-01-16T11:59:40;35.23;;;19.43;;
7835;SDS011;3963;42.658;23.298;2023-01-16T12:02:21;36.30;;;17.80;;
7835;SDS011;3963;42.658;23.298;2023-01-16T12:05:06;33.67;;;17.67;;
7835;SDS011;3963;42.658;23.298;2023-01-16T12:08:02;33.30;;;17.70;;
7835;SDS011;3963;42.658;23.298;2023-01-16T12:10:46;29.93;;;16.87;;
7835;SDS011;3963;42.658;23.298;2023-01-16T12:13:22;31.97;;;16.27;;
7835;SDS011;3963;42.658;23.298;2023-01-16T12:16:16;35.50;;;17.83;;
7835;SDS011;3963;42.658;23.298;2023-01-16T12:18:51;28.60;;;16.17;;
7835;SDS011;3963;42.658;23.298;2023-01-16T12:21:30;31.93;;;17.57;;
7835;SDS011;3963;42.658;23.298;2023-01-16T12:24:07;32.37;;;15.70;;
7835;SDS011;3963;42.658;23.298;2023-01-16T12:26:47;27.57;;;16.23;;
7835;SDS011;3963;42.658;23.298;2023-01-16T12:29:27;35.27;;;18.13;;
7835;SDS011;3963;42.658;23.298;2023-01-16T12:32:06;30.90;;;17.83;;
7835;SDS011;3963;42.658;23.298;2023-01-16T12:34:47;28.60;;;15.80;;
7835;SDS011;3963;42.658;23.298;2023-01-16T12:37:42;30.67;;;16.30;;
7835;SDS011;3963;42.658;23.298;2023-01-16T12:40:23;27.77;;;15.30;;
7835;SDS011;3963;42.658;23.298;2023-01-16T12:42:58;31.73;;;15.83;;
7835;SDS011;3963;42.658;23.298;2023-01-16T12:45:47;32.67;;;17.17;;
7835;SDS011;3963;42.658;23.298;2023-01-16T12:48:30;36.50;;;17.67;;
7835;SDS011;3963;42.658;23.298;2023-01-16T12:51:13;34.40;;;18.10;;
7835;SDS011;3963;42.658;23.298;2023-01-16T12:54:01;29.97;;;17.13;;
7835;SDS011;3963;42.658;23.298;2023-01-16T12:56:52;38.07;;;17.20;;
7835;SDS011;3963;42.658;23.298;2023-01-16T12:59:28;28.97;;;16.97;;
7835;SDS011;3963;42.658;23.298;2023-01-16T13:02:02;33.10;;;17.30;;
7835;SDS011;3963;42.658;23.298;2023-01-16T13:04:39;31.10;;;15.70;;
7835;SDS011;3963;42.658;23.298;2023-01-16T13:07:12;29.80;;;16.30;;
7835;SDS011;3963;42.658;23.298;2023-01-16T13:09:43;32.53;;;17.37;;
7835;SDS011;3963;42.658;23.298;2023-01-16T13:12:16;32.80;;;18.33;;
7835;SDS011;3963;42.658;23.298;2023-01-16T13:15:04;36.40;;;17.83;;
7835;SDS011;3963;42.658;23.298;2023-01-16T13:17:39;30.43;;;16.93;;
7835;SDS011;3963;42.658;23.298;2023-01-16T13:20:10;31.40;;;17.47;;
7835;SDS011;3963;42.658;23.298;2023-01-16T13:22:41;31.00;;;16.80;;
7835;SDS011;3963;42.658;23.298;2023-01-16T13:25:15;28.20;;;15.07;;
7835;SDS011;3963;42.658;23.298;2023-01-16T13:27:48;30.57;;;16.70;;
7835;SDS011;3963;42.658;23.298;2023-01-16T13:30:20;32.57;;;16.90;;
7835;SDS011;3963;42.658;23.298;2023-01-16T13:32:50;35.60;;;17.43;;
7835;SDS011;3963;42.658;23.298;2023-01-16T13:35:21;28.60;;;16.57;;
7835;SDS011;3963;42.658;23.298;2023-01-16T13:37:55;31.40;;;16.43;;
7835;SDS011;3963;42.658;23.298;2023-01-16T13:40:37;29.80;;;16.77;;
7835;SDS011;3963;42.658;23.298;2023-01-16T13:43:15;38.03;;;17.00;;
7835;SDS011;3963;42.658;23.298;2023-01-16T13:46:02;55.00;;;27.47;;
7835;SDS011;3963;42.658;23.298;2023-01-16T13:48:31;30.83;;;16.87;;
7835;SDS011;3963;42.658;23.298;2023-01-16T13:51:00;35.40;;;17.27;;
7835;SDS011;3963;42.658;23.298;2023-01-16T13:53:29;31.53;;;16.87;;
7835;SDS011;3963;42.658;23.298;2023-01-16T13:56:02;30.13;;;15.53;;
7835;SDS011;3963;42.658;23.298;2023-01-16T13:58:32;32.57;;;15.70;;
7835;SDS011;3963;42.658;23.298;2023-01-16T14:01:05;34.73;;;16.90;;
7835;SDS011;3963;42.658;23.298;2023-01-16T14:03:34;25.20;;;14.10;;
7835;SDS011;3963;42.658;23.298;2023-01-16T14:08:51;24.63;;;13.77;;
7835;SDS011;3963;42.658;23.298;2023-01-16T14:11:34;23.47;;;12.77;;
7835;SDS011;3963;42.658;23.298;2023-01-16T14:14:30;19.73;;;12.07;;
7835;SDS011;3963;42.658;23.298;2023-01-16T14:20:35;37.20;;;17.23;;
7835;SDS011;3963;42.658;23.298;2023-01-16T14:23:13;27.07;;;14.53;;
7835;SDS011;3963;42.658;23.298;2023-01-16T14:26:02;25.13;;;14.00;;
7835;SDS011;3963;42.658;23.298;2023-01-16T14:28:31;21.63;;;12.47;;
7835;SDS011;3963;42.658;23.298;2023-01-16T14:30:59;26.50;;;13.47;;
7835;SDS011;3963;42.658;23.298;2023-01-16T14:33:27;26.83;;;13.63;;
7835;SDS011;3963;42.658;23.298;2023-01-16T14:35:56;28.50;;;13.87;;
7835;SDS011;3963;42.658;23.298;2023-01-16T14:38:25;29.57;;;15.33;;
7835;SDS011;3963;42.658;23.298;2023-01-16T14:40:56;22.40;;;13.47;;
7835;SDS011;3963;42.658;23.298;2023-01-16T14:44:10;26.97;;;14.07;;
7835;SDS011;3963;42.658;23.298;2023-01-16T14:47:11;25.43;;;13.87;;
7835;SDS011;3963;42.658;23.298;2023-01-16T14:50:07;33.00;;;16.47;;
7835;SDS011;3963;42.658;23.298;2023-01-16T14:53:10;28.67;;;16.67;;
7835;SDS011;3963;42.658;23.298;2023-01-16T14:56:01;34.90;;;16.60;;
7835;SDS011;3963;42.658;23.298;2023-01-16T14:58:32;31.77;;;17.17;;
7835;SDS011;3963;42.658;23.298;2023-01-16T15:01:02;26.07;;;14.97;;
7835;SDS011;3963;42.658;23.298;2023-01-16T15:03:54;24.93;;;14.17;;
7835;SDS011;3963;42.658;23.298;2023-01-16T15:06:21;28.27;;;14.67;;
7835;SDS011;3963;42.658;23.298;2023-01-16T15:08:51;26.70;;;14.67;;
7835;SDS011;3963;42.658;23.298;2023-01-16T15:11:22;28.23;;;14.70;;
7835;SDS011;3963;42.658;23.298;2023-01-16T15:20:20;25.33;;;14.67;;
7835;SDS011;3963;42.658;23.298;2023-01-16T15:23:14;26.33;;;13.90;;
7835;SDS011;3963;42.658;23.298;2023-01-16T15:26:03;23.23;;;14.00;;
7835;SDS011;3963;42.658;23.298;2023-01-16T15:28:49;31.57;;;14.90;;